sensor_id;sensor_type;location;lat;lon;timestamp;P1;durP1;ratioP1;P2;durP2;ratioP2
14342;SDS011;7255;53.596;9.960;2023-11-22T00:00:11;2.87;;;2.67;;
14342;SDS011;7255;53.596;9.960;2023-11-22T00:02:38;3.07;;;2.73;;
14342;SDS011;7255;53.596;9.960;2023-11-22T00:05:05;3.57;;;3.07;;
14342;SDS011;7255;53.596;9.960;2023-11-22T00:07:32;6.13;;;3.50;;
14342;SDS011;7255;53.596;9.960;2023-11-22T00:09:58;2.87;;;2.67;;
14342;SDS011;7255;53.596;9.960;2023-11-22T00:12:27;3.67;;;3.20;;
14342;SDS011;7255;53.596;9.960;2023-11-22T00:15:01;3.10;;;2.57;;
14342;SDS011;7255;53.596;9.960;2023-11-22T00:17:27;3.20;;;2.70;;
14342;SDS011;7255;53.596;9.960;2023-11-22T00:19:54;3.27;;;2.97;;
14342;SDS011;7255;53.596;9.960;2023-11-22T00:22:20;4.60;;;3.33;;
14342;SDS011;7255;53.596;9.960;2023-11-22T00:24:46;3.77;;;2.90;;
14342;SDS011;7255;53.596;9.960;2023-11-22T00:27:15;4.10;;;3.30;;
14342;SDS011;7255;53.596;9.960;2023-11-22T00:29:43;3.53;;;2.90;;
14342;SDS011;7255;53.596;9.960;2023-11-22T00:32:09;4.17;;;3.77;;
14342;SDS011;7255;53.596;9.960;2023-11-22T00:34:35;3.40;;;3.10;;
14342;SDS011;7255;53.596;9.960;2023-11-22T00:37:01;4.10;;;3.20;;
14342;SDS011;7255;53.596;9.960;2023-11-22T00:39:28;4.73;;;3.60;;
14342;SDS011;7255;53.596;9.960;2023-11-22T00:41:54;3.60;;;3.20;;
14342;SDS011;7255;53.596;9.960;2023-11-22T00:44:20;2.97;;;2.77;;
14342;SDS011;7255;53.596;9.960;2023-11-22T00:46:48;4.73;;;3.40;;
14342;SDS011;7255;53.596;9.960;2023-11-22T00:49:14;4.10;;;3.70;;
14342;SDS011;7255;53.596;9.960;2023-11-22T00:51:41;3.47;;;3.17;;
14342;SDS011;7255;53.596;9.960;2023-11-22T00:54:07;5.10;;;3.50;;
14342;SDS011;7255;53.596;9.960;2023-11-22T00:56:34;3.40;;;3.20;;
14342;SDS011;7255;53.596;9.960;2023-11-22T00:59:01;3.97;;;3.37;;
14342;SDS011;7255;53.596;9.960;2023-11-22T01:01:29;3.73;;;3.43;;
14342;SDS011;7255;53.596;9.960;2023-11-22T01:03:57;3.90;;;3.60;;
14342;SDS011;7255;53.596;9.960;2023-11-22T01:06:23;4.50;;;3.60;;
14342;SDS011;7255;53.596;9.960;2023-11-22T01:08:50;5.27;;;3.63;;
14342;SDS011;7255;53.596;9.960;2023-11-22T01:11:16;4.40;;;3.40;;
14342;SDS011;7255;53.596;9.960;2023-11-22T01:13:42;3.83;;;3.37;;
14342;SDS011;7255;53.596;9.960;2023-11-22T01:16:09;3.50;;;3.07;;
14342;SDS011;7255;53.596;9.960;2023-11-22T01:18:36;6.73;;;3.93;;
14342;SDS011;7255;53.596;9.960;2023-11-22T01:21:04;3.47;;;3.13;;
14342;SDS011;7255;53.596;9.960;2023-11-22T01:23:31;5.10;;;3.77;;
14342;SDS011;7255;53.596;9.960;2023-11-22T01:25:58;3.47;;;3.17;;
14342;SDS011;7255;53.596;9.960;2023-11-22T01:28:24;3.70;;;3.20;;
14342;SDS011;7255;53.596;9.960;2023-11-22T01:30:52;3.67;;;3.23;;
14342;SDS011;7255;53.596;9.960;2023-11-22T01:33:19;3.47;;;3.13;;
14342;SDS011;7255;53.596;9.960;2023-11-22T01:35:45;3.30;;;3.10;;
14342;SDS011;7255;53.596;9.960;2023-11-22T01:38:13;6.37;;;3.57;;
14342;SDS011;7255;53.596;9.960;2023-11-22T01:40:43;3.30;;;2.97;;
14342;SDS011;7255;53.596;9.960;2023-11-22T01:43:12;3.87;;;3.43;;
14342;SDS011;7255;53.596;9.960;2023-11-22T01:45:40;5.23;;;4.20;;
14342;SDS011;7255;53.596;9.960;2023-11-22T01:48:06;3.43;;;3.13;;
14342;SDS011;7255;53.596;9.960;2023-11-22T01:50:35;3.13;;;2.93;;
14342;SDS011;7255;53.596;9.960;2023-11-22T01:53:02;3.00;;;2.80;;
14342;SDS011;7255;53.596;9.960;2023-11-22T01:55:30;3.40;;;3.10;;
14342;SDS011;7255;53.596;9.960;2023-11-22T01:57:56;3.67;;;3.37;;
14342;SDS011;7255;53.596;9.960;2023-11-22T02:00:23;3.83;;;3.53;;
14342;SDS011;7255;53.596;9.960;2023-11-22T02:02:52;4.50;;;4.10;;
14342;SDS011;7255;53.596;9.960;2023-11-22T02:05:19;4.30;;;3.90;;
14342;SDS011;7255;53.596;9.960;2023-11-22T02:07:45;3.53;;;3.23;;
14342;SDS011;7255;53.596;9.960;2023-11-22T02:10:11;5.70;;;3.23;;
14342;SDS011;7255;53.596;9.960;2023-11-22T02:12:39;4.07;;;3.70;;
14342;SDS011;7255;53.596;9.960;2023-11-22T02:15:06;4.50;;;3.40;;
14342;SDS011;7255;53.596;9.960;2023-11-22T02:17:33;4.40;;;3.27;;
14342;SDS011;7255;53.596;9.960;2023-11-22T02:20:01;3.93;;;3.43;;
14342;SDS011;7255;53.596;9.960;2023-11-22T02:22:31;3.67;;;3.43;;
14342;SDS011;7255;53.596;9.960;2023-11-22T02:24:58;5.00;;;3.87;;
14342;SDS011;7255;53.596;9.960;2023-11-22T02:27:25;3.40;;;3.20;;
14342;SDS011;7255;53.596;9.960;2023-11-22T02:29:51;3.57;;;3.27;;
14342;SDS011;7255;53.596;9.960;2023-11-22T02:32:17;4.43;;;4.03;;
14342;SDS011;7255;53.596;9.960;2023-11-22T02:34:44;3.93;;;3.10;;
14342;SDS011;7255;53.596;9.960;2023-11-22T02:37:11;5.90;;;4.00;;
14342;SDS011;7255;53.596;9.960;2023-11-22T02:39:41;4.20;;;3.70;;
14342;SDS011;7255;53.596;9.960;2023-11-22T02:42:15;3.97;;;3.57;;
14342;SDS011;7255;53.596;9.960;2023-11-22T02:48:03;4.17;;;3.50;;
14342;SDS011;7255;53.596;9.960;2023-11-22T02:50:34;4.17;;;3.77;;
14342;SDS011;7255;53.596;9.960;2023-11-22T02:53:02;6.43;;;4.33;;
14342;SDS011;7255;53.596;9.960;2023-11-22T02:55:28;4.20;;;3.80;;
14342;SDS011;7255;53.596;9.960;2023-11-22T02:57:56;5.77;;;3.57;;
14342;SDS011;7255;53.596;9.960;2023-11-22T03:00:22;3.63;;;3.33;;
14342;SDS011;7255;53.596;9.960;2023-11-22T03:02:50;3.53;;;3.23;;
14342;SDS011;7255;53.596;9.960;2023-11-22T03:05:18;4.17;;;3.77;;
14342;SDS011;7255;53.596;9.960;2023-11-22T03:07:45;4.23;;;3.70;;
14342;SDS011;7255;53.596;9.960;2023-11-22T03:10:11;4.60;;;4.20;;
14342;SDS011;7255;53.596;9.960;2023-11-22T03:12:50;4.67;;;3.87;;
14342;SDS011;7255;53.596;9.960;2023-11-22T03:15:18;3.30;;;3.00;;
14342;SDS011;7255;53.596;9.960;2023-11-22T03:17:44;3.50;;;3.30;;
14342;SDS011;7255;53.596;9.960;2023-11-22T03:20:10;4.10;;;3.80;;
14342;SDS011;7255;53.596;9.960;2023-11-22T03:22:37;4.03;;;3.40;;
14342;SDS011;7255;53.596;9.960;2023-11-22T03:25:04;3.90;;;3.50;;
14342;SDS011;7255;53.596;9.960;2023-11-22T03:27:32;3.67;;;3.37;;
14342;SDS011;7255;53.596;9.960;2023-11-22T03:29:59;4.57;;;4.17;;
14342;SDS011;7255;53.596;9.960;2023-11-22T03:32:27;5.70;;;3.60;;
14342;SDS011;7255;53.596;9.960;2023-11-22T03:34:54;3.60;;;3.20;;
14342;SDS011;7255;53.596;9.960;2023-11-22T03:37:21;5.93;;;3.40;;
14342;SDS011;7255;53.596;9.960;2023-11-22T03:39:47;6.73;;;3.40;;
14342;SDS011;7255;53.596;9.960;2023-11-22T03:42:14;3.87;;;3.47;;
14342;SDS011;7255;53.596;9.960;2023-11-22T03:44:41;3.67;;;3.37;;
14342;SDS011;7255;53.596;9.960;2023-11-22T03:47:07;6.43;;;3.40;;
14342;SDS011;7255;53.596;9.960;2023-11-22T03:49:35;4.57;;;3.60;;
14342;SDS011;7255;53.596;9.960;2023-11-22T03:52:01;3.70;;;3.40;;
14342;SDS011;7255;53.596;9.960;2023-11-22T03:54:28;4.30;;;4.00;;
14342;SDS011;7255;53.596;9.960;2023-11-22T03:56:54;4.43;;;4.03;;
14342;SDS011;7255;53.596;9.960;2023-11-22T03:59:20;4.43;;;4.00;;
14342;SDS011;7255;53.596;9.960;2023-11-22T04:01:47;4.17;;;3.77;;
14342;SDS011;7255;53.596;9.960;2023-11-22T04:04:13;4.20;;;3.80;;
14342;SDS011;7255;53.596;9.960;2023-11-22T04:06:41;6.13;;;4.10;;
14342;SDS011;7255;53.596;9.960;2023-11-22T04:09:07;4.80;;;4.30;;
14342;SDS011;7255;53.596;9.960;2023-11-22T04:11:37;4.60;;;4.20;;
14342;SDS011;7255;53.596;9.960;2023-11-22T04:14:03;5.27;;;4.40;;
14342;SDS011;7255;53.596;9.960;2023-11-22T04:16:29;4.87;;;3.37;;
14342;SDS011;7255;53.596;9.960;2023-11-22T04:18:56;4.77;;;4.27;;
14342;SDS011;7255;53.596;9.960;2023-11-22T04:21:22;4.77;;;3.40;;
14342;SDS011;7255;53.596;9.960;2023-11-22T04:23:50;4.60;;;4.20;;
14342;SDS011;7255;53.596;9.960;2023-11-22T04:26:16;4.67;;;3.53;;
14342;SDS011;7255;53.596;9.960;2023-11-22T04:28:45;4.47;;;3.67;;
14342;SDS011;7255;53.596;9.960;2023-11-22T04:31:11;4.20;;;3.43;;
14342;SDS011;7255;53.596;9.960;2023-11-22T04:33:40;4.33;;;3.93;;
14342;SDS011;7255;53.596;9.960;2023-11-22T04:36:06;4.03;;;3.63;;
14342;SDS011;7255;53.596;9.960;2023-11-22T04:38:33;7.37;;;4.60;;
14342;SDS011;7255;53.596;9.960;2023-11-22T04:41:01;7.10;;;4.33;;
14342;SDS011;7255;53.596;9.960;2023-11-22T04:43:27;4.47;;;4.07;;
14342;SDS011;7255;53.596;9.960;2023-11-22T04:45:53;3.83;;;3.53;;
14342;SDS011;7255;53.596;9.960;2023-11-22T04:48:20;6.03;;;3.80;;
14342;SDS011;7255;53.596;9.960;2023-11-22T04:50:46;4.53;;;4.17;;
14342;SDS011;7255;53.596;9.960;2023-11-22T04:53:12;4.17;;;3.70;;
14342;SDS011;7255;53.596;9.960;2023-11-22T04:55:39;6.67;;;4.17;;
14342;SDS011;7255;53.596;9.960;2023-11-22T04:58:06;3.27;;;3.00;;
14342;SDS011;7255;53.596;9.960;2023-11-22T05:00:32;4.57;;;4.17;;
14342;SDS011;7255;53.596;9.960;2023-11-22T05:02:59;4.83;;;4.07;;
14342;SDS011;7255;53.596;9.960;2023-11-22T05:05:25;4.47;;;4.07;;
14342;SDS011;7255;53.596;9.960;2023-11-22T05:07:52;4.13;;;3.83;;
14342;SDS011;7255;53.596;9.960;2023-11-22T05:10:18;4.70;;;3.87;;
14342;SDS011;7255;53.596;9.960;2023-11-22T05:12:44;4.63;;;4.23;;
14342;SDS011;7255;53.596;9.960;2023-11-22T05:15:12;4.20;;;3.77;;
14342;SDS011;7255;53.596;9.960;2023-11-22T05:17:39;4.93;;;4.43;;
14342;SDS011;7255;53.596;9.960;2023-11-22T05:20:06;4.10;;;3.73;;
14342;SDS011;7255;53.596;9.960;2023-11-22T05:22:34;3.90;;;3.60;;
14342;SDS011;7255;53.596;9.960;2023-11-22T05:25:00;5.67;;;5.17;;
14342;SDS011;7255;53.596;9.960;2023-11-22T05:27:27;4.73;;;4.23;;
14342;SDS011;7255;53.596;9.960;2023-11-22T05:29:53;4.57;;;4.10;;
14342;SDS011;7255;53.596;9.960;2023-11-22T05:32:21;4.70;;;4.30;;
14342;SDS011;7255;53.596;9.960;2023-11-22T05:34:47;4.17;;;3.70;;
14342;SDS011;7255;53.596;9.960;2023-11-22T05:37:14;5.13;;;3.97;;
14342;SDS011;7255;53.596;9.960;2023-11-22T05:39:40;6.50;;;4.03;;
14342;SDS011;7255;53.596;9.960;2023-11-22T05:42:06;4.60;;;4.20;;
14342;SDS011;7255;53.596;9.960;2023-11-22T05:44:33;5.90;;;4.43;;
14342;SDS011;7255;53.596;9.960;2023-11-22T05:46:59;4.23;;;3.93;;
14342;SDS011;7255;53.596;9.960;2023-11-22T05:49:27;5.20;;;4.70;;
14342;SDS011;7255;53.596;9.960;2023-11-22T05:51:53;4.60;;;4.20;;
14342;SDS011;7255;53.596;9.960;2023-11-22T05:54:19;4.57;;;4.17;;
14342;SDS011;7255;53.596;9.960;2023-11-22T05:56:46;4.43;;;4.03;;
14342;SDS011;7255;53.596;9.960;2023-11-22T05:59:12;4.60;;;4.13;;
14342;SDS011;7255;53.596;9.960;2023-11-22T06:01:38;6.73;;;4.80;;
14342;SDS011;7255;53.596;9.960;2023-11-22T06:04:04;4.13;;;3.77;;
14342;SDS011;7255;53.596;9.960;2023-11-22T06:06:35;4.70;;;4.17;;
14342;SDS011;7255;53.596;9.960;2023-11-22T06:09:02;4.20;;;3.87;;
14342;SDS011;7255;53.596;9.960;2023-11-22T06:11:30;4.93;;;4.43;;
14342;SDS011;7255;53.596;9.960;2023-11-22T06:13:56;4.30;;;3.83;;
14342;SDS011;7255;53.596;9.960;2023-11-22T06:16:23;5.07;;;4.63;;
14342;SDS011;7255;53.596;9.960;2023-11-22T06:18:49;3.97;;;3.67;;
14342;SDS011;7255;53.596;9.960;2023-11-22T06:21:15;4.27;;;3.97;;
14342;SDS011;7255;53.596;9.960;2023-11-22T06:23:43;6.97;;;5.10;;
14342;SDS011;7255;53.596;9.960;2023-11-22T06:26:09;5.87;;;4.47;;
14342;SDS011;7255;53.596;9.960;2023-11-22T06:28:35;4.37;;;3.97;;
14342;SDS011;7255;53.596;9.960;2023-11-22T06:31:02;4.73;;;4.33;;
14342;SDS011;7255;53.596;9.960;2023-11-22T06:33:28;4.40;;;4.00;;
14342;SDS011;7255;53.596;9.960;2023-11-22T06:35:55;4.00;;;3.57;;
14342;SDS011;7255;53.596;9.960;2023-11-22T06:38:21;4.87;;;4.33;;
14342;SDS011;7255;53.596;9.960;2023-11-22T06:40:49;6.17;;;4.60;;
14342;SDS011;7255;53.596;9.960;2023-11-22T06:43:15;5.87;;;4.87;;
14342;SDS011;7255;53.596;9.960;2023-11-22T06:45:41;5.73;;;4.47;;
14342;SDS011;7255;53.596;9.960;2023-11-22T06:48:08;5.07;;;4.30;;
14342;SDS011;7255;53.596;9.960;2023-11-22T06:50:34;4.00;;;3.70;;
14342;SDS011;7255;53.596;9.960;2023-11-22T06:53:00;4.03;;;3.70;;
14342;SDS011;7255;53.596;9.960;2023-11-22T06:55:28;5.17;;;4.67;;
14342;SDS011;7255;53.596;9.960;2023-11-22T06:57:57;6.57;;;4.80;;
14342;SDS011;7255;53.596;9.960;2023-11-22T07:00:23;6.53;;;5.10;;
14342;SDS011;7255;53.596;9.960;2023-11-22T07:02:51;6.83;;;4.53;;
14342;SDS011;7255;53.596;9.960;2023-11-22T07:05:17;4.63;;;4.23;;
14342;SDS011;7255;53.596;9.960;2023-11-22T07:07:44;4.83;;;3.87;;
14342;SDS011;7255;53.596;9.960;2023-11-22T07:10:11;4.63;;;4.23;;
14342;SDS011;7255;53.596;9.960;2023-11-22T07:12:46;4.40;;;4.00;;
14342;SDS011;7255;53.596;9.960;2023-11-22T07:15:29;5.27;;;4.37;;
14342;SDS011;7255;53.596;9.960;2023-11-22T07:17:56;6.43;;;4.53;;
14342;SDS011;7255;53.596;9.960;2023-11-22T07:20:22;4.77;;;4.07;;
14342;SDS011;7255;53.596;9.960;2023-11-22T07:22:48;6.43;;;4.30;;
14342;SDS011;7255;53.596;9.960;2023-11-22T07:25:20;12.13;;;4.60;;
14342;SDS011;7255;53.596;9.960;2023-11-22T07:27:49;4.93;;;4.10;;
14342;SDS011;7255;53.596;9.960;2023-11-22T07:30:16;4.10;;;3.70;;
14342;SDS011;7255;53.596;9.960;2023-11-22T07:32:45;5.87;;;4.17;;
14342;SDS011;7255;53.596;9.960;2023-11-22T07:35:13;5.60;;;4.20;;
14342;SDS011;7255;53.596;9.960;2023-11-22T07:37:40;6.57;;;4.57;;
14342;SDS011;7255;53.596;9.960;2023-11-22T07:40:08;5.40;;;4.67;;
14342;SDS011;7255;53.596;9.960;2023-11-22T07:42:36;6.83;;;4.00;;
14342;SDS011;7255;53.596;9.960;2023-11-22T07:45:03;4.43;;;4.03;;
14342;SDS011;7255;53.596;9.960;2023-11-22T07:47:30;6.33;;;4.47;;
14342;SDS011;7255;53.596;9.960;2023-11-22T07:49:58;4.30;;;3.90;;
14342;SDS011;7255;53.596;9.960;2023-11-22T07:52:26;5.13;;;4.63;;
14342;SDS011;7255;53.596;9.960;2023-11-22T07:54:55;4.30;;;3.93;;
14342;SDS011;7255;53.596;9.960;2023-11-22T07:57:21;4.93;;;4.43;;
14342;SDS011;7255;53.596;9.960;2023-11-22T07:59:48;8.63;;;5.17;;
14342;SDS011;7255;53.596;9.960;2023-11-22T08:02:14;6.87;;;5.00;;
14342;SDS011;7255;53.596;9.960;2023-11-22T08:04:43;7.60;;;4.27;;
14342;SDS011;7255;53.596;9.960;2023-11-22T08:07:11;6.20;;;4.57;;
14342;SDS011;7255;53.596;9.960;2023-11-22T08:09:39;4.77;;;3.83;;
14342;SDS011;7255;53.596;9.960;2023-11-22T08:12:06;5.70;;;4.23;;
14342;SDS011;7255;53.596;9.960;2023-11-22T08:14:32;7.07;;;5.47;;
14342;SDS011;7255;53.596;9.960;2023-11-22T08:16:59;6.23;;;5.10;;
14342;SDS011;7255;53.596;9.960;2023-11-22T08:19:25;4.43;;;4.03;;
14342;SDS011;7255;53.596;9.960;2023-11-22T08:21:52;10.47;;;4.57;;
14342;SDS011;7255;53.596;9.960;2023-11-22T08:24:20;5.43;;;4.07;;
14342;SDS011;7255;53.596;9.960;2023-11-22T08:26:47;5.43;;;4.77;;
14342;SDS011;7255;53.596;9.960;2023-11-22T08:29:13;5.37;;;4.27;;
14342;SDS011;7255;53.596;9.960;2023-11-22T08:31:41;5.53;;;5.03;;
14342;SDS011;7255;53.596;9.960;2023-11-22T08:34:07;7.50;;;4.07;;
14342;SDS011;7255;53.596;9.960;2023-11-22T08:36:34;6.53;;;4.50;;
14342;SDS011;7255;53.596;9.960;2023-11-22T08:39:00;5.60;;;4.53;;
14342;SDS011;7255;53.596;9.960;2023-11-22T08:41:31;5.53;;;4.70;;
14342;SDS011;7255;53.596;9.960;2023-11-22T08:43:58;5.60;;;4.10;;
14342;SDS011;7255;53.596;9.960;2023-11-22T08:46:25;8.47;;;4.80;;
14342;SDS011;7255;53.596;9.960;2023-11-22T08:48:52;9.47;;;6.00;;
14342;SDS011;7255;53.596;9.960;2023-11-22T08:51:18;5.77;;;5.03;;
14342;SDS011;7255;53.596;9.960;2023-11-22T08:53:44;7.23;;;4.93;;
14342;SDS011;7255;53.596;9.960;2023-11-22T08:56:11;8.20;;;4.60;;
14342;SDS011;7255;53.596;9.960;2023-11-22T08:58:39;7.60;;;5.13;;
14342;SDS011;7255;53.596;9.960;2023-11-22T09:01:05;6.27;;;4.73;;
14342;SDS011;7255;53.596;9.960;2023-11-22T09:03:32;8.63;;;5.20;;
14342;SDS011;7255;53.596;9.960;2023-11-22T09:05:58;7.87;;;4.80;;
14342;SDS011;7255;53.596;9.960;2023-11-22T09:08:25;10.20;;;5.17;;
14342;SDS011;7255;53.596;9.960;2023-11-22T09:10:51;10.00;;;4.90;;
14342;SDS011;7255;53.596;9.960;2023-11-22T09:13:18;9.20;;;5.17;;
14342;SDS011;7255;53.596;9.960;2023-11-22T09:15:46;6.63;;;4.23;;
14342;SDS011;7255;53.596;9.960;2023-11-22T09:18:12;6.33;;;4.57;;
14342;SDS011;7255;53.596;9.960;2023-11-22T09:20:39;6.10;;;4.57;;
14342;SDS011;7255;53.596;9.960;2023-11-22T09:23:09;4.40;;;3.70;;
14342;SDS011;7255;53.596;9.960;2023-11-22T09:25:35;5.33;;;4.70;;
14342;SDS011;7255;53.596;9.960;2023-11-22T09:28:02;5.60;;;4.80;;
14342;SDS011;7255;53.596;9.960;2023-11-22T09:30:29;4.63;;;3.47;;
14342;SDS011;7255;53.596;9.960;2023-11-22T09:33:02;4.30;;;3.90;;
14342;SDS011;7255;53.596;9.960;2023-11-22T09:35:29;7.53;;;4.43;;
14342;SDS011;7255;53.596;9.960;2023-11-22T09:37:57;5.40;;;4.07;;
14342;SDS011;7255;53.596;9.960;2023-11-22T09:40:24;4.93;;;4.17;;
14342;SDS011;7255;53.596;9.960;2023-11-22T09:42:52;7.10;;;4.80;;
14342;SDS011;7255;53.596;9.960;2023-11-22T09:45:20;7.27;;;4.93;;
14342;SDS011;7255;53.596;9.960;2023-11-22T09:47:47;6.93;;;5.30;;
14342;SDS011;7255;53.596;9.960;2023-11-22T09:50:17;5.80;;;4.23;;
14342;SDS011;7255;53.596;9.960;2023-11-22T09:52:49;8.70;;;5.53;;
14342;SDS011;7255;53.596;9.960;2023-11-22T09:55:16;5.90;;;4.60;;
14342;SDS011;7255;53.596;9.960;2023-11-22T09:57:43;7.67;;;5.00;;
14342;SDS011;7255;53.596;9.960;2023-11-22T10:00:10;5.57;;;4.80;;
14342;SDS011;7255;53.596;9.960;2023-11-22T10:02:39;12.23;;;5.90;;
14342;SDS011;7255;53.596;9.960;2023-11-22T10:05:06;6.33;;;5.10;;
14342;SDS011;7255;53.596;9.960;2023-11-22T10:07:35;6.07;;;5.00;;
14342;SDS011;7255;53.596;9.960;2023-11-22T10:10:01;7.60;;;5.80;;
14342;SDS011;7255;53.596;9.960;2023-11-22T10:12:30;9.00;;;5.97;;
14342;SDS011;7255;53.596;9.960;2023-11-22T10:15:00;7.90;;;5.57;;
14342;SDS011;7255;53.596;9.960;2023-11-22T10:17:36;5.93;;;5.20;;
14342;SDS011;7255;53.596;9.960;2023-11-22T10:20:03;7.93;;;5.50;;
14342;SDS011;7255;53.596;9.960;2023-11-22T10:22:42;12.67;;;4.93;;
14342;SDS011;7255;53.596;9.960;2023-11-22T10:25:10;6.20;;;5.47;;
14342;SDS011;7255;53.596;9.960;2023-11-22T10:27:38;9.20;;;5.83;;
14342;SDS011;7255;53.596;9.960;2023-11-22T10:30:06;8.80;;;5.50;;
14342;SDS011;7255;53.596;9.960;2023-11-22T10:32:34;5.17;;;4.67;;
14342;SDS011;7255;53.596;9.960;2023-11-22T10:35:03;7.60;;;4.93;;
14342;SDS011;7255;53.596;9.960;2023-11-22T10:37:32;9.90;;;6.40;;
14342;SDS011;7255;53.596;9.960;2023-11-22T10:40:00;9.93;;;5.13;;
14342;SDS011;7255;53.596;9.960;2023-11-22T10:42:27;5.47;;;4.50;;
14342;SDS011;7255;53.596;9.960;2023-11-22T10:44:53;9.13;;;4.97;;
14342;SDS011;7255;53.596;9.960;2023-11-22T10:47:22;7.73;;;4.07;;
14342;SDS011;7255;53.596;9.960;2023-11-22T10:49:48;6.83;;;4.13;;
14342;SDS011;7255;53.596;9.960;2023-11-22T10:52:14;3.97;;;3.43;;
14342;SDS011;7255;53.596;9.960;2023-11-22T10:54:44;5.50;;;4.17;;
14342;SDS011;7255;53.596;9.960;2023-11-22T10:57:16;5.17;;;3.60;;
14342;SDS011;7255;53.596;9.960;2023-11-22T10:59:45;6.37;;;3.70;;
14342;SDS011;7255;53.596;9.960;2023-11-22T11:02:18;8.07;;;4.23;;
14342;SDS011;7255;53.596;9.960;2023-11-22T11:04:49;6.60;;;3.53;;
14342;SDS011;7255;53.596;9.960;2023-11-22T11:07:21;2.87;;;2.63;;
14342;SDS011;7255;53.596;9.960;2023-11-22T11:09:50;4.63;;;3.00;;
14342;SDS011;7255;53.596;9.960;2023-11-22T11:12:19;3.83;;;2.73;;
14342;SDS011;7255;53.596;9.960;2023-11-22T11:14:46;3.57;;;2.70;;
14342;SDS011;7255;53.596;9.960;2023-11-22T11:17:14;2.50;;;2.30;;
14342;SDS011;7255;53.596;9.960;2023-11-22T11:19:41;3.20;;;2.90;;
14342;SDS011;7255;53.596;9.960;2023-11-22T11:22:07;5.40;;;2.43;;
14342;SDS011;7255;53.596;9.960;2023-11-22T11:24:38;5.70;;;2.60;;
14342;SDS011;7255;53.596;9.960;2023-11-22T11:27:05;2.43;;;2.30;;
14342;SDS011;7255;53.596;9.960;2023-11-22T11:29:33;4.77;;;2.33;;
14342;SDS011;7255;53.596;9.960;2023-11-22T11:32:02;2.27;;;2.07;;
14342;SDS011;7255;53.596;9.960;2023-11-22T11:34:29;1.83;;;1.73;;
14342;SDS011;7255;53.596;9.960;2023-11-22T11:36:55;2.40;;;2.20;;
14342;SDS011;7255;53.596;9.960;2023-11-22T11:39:24;3.03;;;2.23;;
14342;SDS011;7255;53.596;9.960;2023-11-22T11:41:58;2.80;;;2.40;;
14342;SDS011;7255;53.596;9.960;2023-11-22T11:44:35;2.23;;;2.03;;
14342;SDS011;7255;53.596;9.960;2023-11-22T11:47:08;3.03;;;1.97;;
14342;SDS011;7255;53.596;9.960;2023-11-22T11:49:36;2.73;;;1.90;;
14342;SDS011;7255;53.596;9.960;2023-11-22T11:52:03;2.03;;;1.93;;
14342;SDS011;7255;53.596;9.960;2023-11-22T11:54:29;1.63;;;1.53;;
14342;SDS011;7255;53.596;9.960;2023-11-22T11:56:58;3.23;;;1.60;;
14342;SDS011;7255;53.596;9.960;2023-11-22T11:59:25;2.23;;;1.67;;
14342;SDS011;7255;53.596;9.960;2023-11-22T12:01:53;1.93;;;1.83;;
14342;SDS011;7255;53.596;9.960;2023-11-22T12:04:22;2.20;;;2.00;;
14342;SDS011;7255;53.596;9.960;2023-11-22T12:06:49;2.47;;;1.77;;
14342;SDS011;7255;53.596;9.960;2023-11-22T12:09:21;3.60;;;1.93;;
14342;SDS011;7255;53.596;9.960;2023-11-22T12:11:49;1.87;;;1.70;;
14342;SDS011;7255;53.596;9.960;2023-11-22T12:14:15;3.97;;;2.00;;
14342;SDS011;7255;53.596;9.960;2023-11-22T12:16:42;1.50;;;1.43;;
14342;SDS011;7255;53.596;9.960;2023-11-22T12:19:14;1.53;;;1.43;;
14342;SDS011;7255;53.596;9.960;2023-11-22T12:21:47;2.00;;;1.83;;
14342;SDS011;7255;53.596;9.960;2023-11-22T12:24:14;3.93;;;1.77;;
14342;SDS011;7255;53.596;9.960;2023-11-22T12:26:44;1.70;;;1.60;;
14342;SDS011;7255;53.596;9.960;2023-11-22T12:29:11;2.70;;;1.50;;
14342;SDS011;7255;53.596;9.960;2023-11-22T12:31:43;1.60;;;1.50;;
14342;SDS011;7255;53.596;9.960;2023-11-22T12:34:11;1.80;;;1.70;;
14342;SDS011;7255;53.596;9.960;2023-11-22T12:36:40;1.93;;;1.83;;
14342;SDS011;7255;53.596;9.960;2023-11-22T12:39:07;3.83;;;1.40;;
14342;SDS011;7255;53.596;9.960;2023-11-22T12:41:36;2.50;;;1.87;;
14342;SDS011;7255;53.596;9.960;2023-11-22T12:44:08;1.60;;;1.50;;
14342;SDS011;7255;53.596;9.960;2023-11-22T12:46:44;1.97;;;1.87;;
14342;SDS011;7255;53.596;9.960;2023-11-22T12:49:15;2.00;;;1.60;;
14342;SDS011;7255;53.596;9.960;2023-11-22T12:51:47;1.63;;;1.53;;
14342;SDS011;7255;53.596;9.960;2023-11-22T12:54:17;1.70;;;1.60;;
14342;SDS011;7255;53.596;9.960;2023-11-22T12:56:46;1.37;;;1.27;;
14342;SDS011;7255;53.596;9.960;2023-11-22T12:59:14;1.67;;;1.57;;
14342;SDS011;7255;53.596;9.960;2023-11-22T13:01:40;1.70;;;1.60;;
14342;SDS011;7255;53.596;9.960;2023-11-22T13:04:07;1.93;;;1.83;;
14342;SDS011;7255;53.596;9.960;2023-11-22T13:06:35;2.00;;;1.90;;
14342;SDS011;7255;53.596;9.960;2023-11-22T13:09:02;1.67;;;1.57;;
14342;SDS011;7255;53.596;9.960;2023-11-22T13:11:28;1.50;;;1.40;;
14342;SDS011;7255;53.596;9.960;2023-11-22T13:13:54;1.43;;;1.33;;
14342;SDS011;7255;53.596;9.960;2023-11-22T13:16:21;1.87;;;1.10;;
14342;SDS011;7255;53.596;9.960;2023-11-22T13:18:47;1.40;;;1.30;;
14342;SDS011;7255;53.596;9.960;2023-11-22T13:21:14;1.30;;;1.30;;
14342;SDS011;7255;53.596;9.960;2023-11-22T13:23:41;1.70;;;1.60;;
14342;SDS011;7255;53.596;9.960;2023-11-22T13:26:08;1.60;;;1.50;;
14342;SDS011;7255;53.596;9.960;2023-11-22T13:28:38;1.23;;;1.23;;
14342;SDS011;7255;53.596;9.960;2023-11-22T13:31:06;1.90;;;1.57;;
14342;SDS011;7255;53.596;9.960;2023-11-22T13:33:32;1.80;;;1.60;;
14342;SDS011;7255;53.596;9.960;2023-11-22T13:35:59;1.40;;;1.40;;
14342;SDS011;7255;53.596;9.960;2023-11-22T13:38:25;1.70;;;1.60;;
14342;SDS011;7255;53.596;9.960;2023-11-22T13:40:53;2.33;;;1.83;;
14342;SDS011;7255;53.596;9.960;2023-11-22T13:43:19;2.93;;;1.70;;
14342;SDS011;7255;53.596;9.960;2023-11-22T13:45:45;1.90;;;1.80;;
14342;SDS011;7255;53.596;9.960;2023-11-22T13:48:12;1.50;;;1.40;;
14342;SDS011;7255;53.596;9.960;2023-11-22T13:50:38;1.80;;;1.70;;
14342;SDS011;7255;53.596;9.960;2023-11-22T13:53:05;1.60;;;1.50;;
14342;SDS011;7255;53.596;9.960;2023-11-22T13:55:34;1.80;;;1.70;;
14342;SDS011;7255;53.596;9.960;2023-11-22T13:58:02;3.60;;;1.60;;
14342;SDS011;7255;53.596;9.960;2023-11-22T14:00:30;1.70;;;1.60;;
14342;SDS011;7255;53.596;9.960;2023-11-22T14:02:59;2.57;;;1.80;;
14342;SDS011;7255;53.596;9.960;2023-11-22T14:05:30;2.60;;;1.97;;
14342;SDS011;7255;53.596;9.960;2023-11-22T14:07:57;2.17;;;2.00;;
14342;SDS011;7255;53.596;9.960;2023-11-22T14:10:24;4.67;;;1.70;;
14342;SDS011;7255;53.596;9.960;2023-11-22T14:12:50;3.60;;;1.77;;
14342;SDS011;7255;53.596;9.960;2023-11-22T14:15:18;4.13;;;2.07;;
14342;SDS011;7255;53.596;9.960;2023-11-22T14:17:45;2.20;;;2.00;;
14342;SDS011;7255;53.596;9.960;2023-11-22T14:20:14;1.80;;;1.70;;
14342;SDS011;7255;53.596;9.960;2023-11-22T14:22:41;1.80;;;1.70;;
14342;SDS011;7255;53.596;9.960;2023-11-22T14:25:08;2.97;;;1.93;;
14342;SDS011;7255;53.596;9.960;2023-11-22T14:27:36;2.37;;;2.20;;
14342;SDS011;7255;53.596;9.960;2023-11-22T14:30:03;2.37;;;2.17;;
14342;SDS011;7255;53.596;9.960;2023-11-22T14:32:35;1.90;;;1.80;;
14342;SDS011;7255;53.596;9.960;2023-11-22T14:35:01;2.00;;;1.90;;
14342;SDS011;7255;53.596;9.960;2023-11-22T14:37:28;2.07;;;1.93;;
14342;SDS011;7255;53.596;9.960;2023-11-22T14:39:54;2.20;;;2.10;;
14342;SDS011;7255;53.596;9.960;2023-11-22T14:42:21;5.13;;;2.33;;
14342;SDS011;7255;53.596;9.960;2023-11-22T14:44:49;7.00;;;2.13;;
14342;SDS011;7255;53.596;9.960;2023-11-22T14:47:16;2.20;;;2.00;;
14342;SDS011;7255;53.596;9.960;2023-11-22T14:49:49;2.10;;;2.00;;
14342;SDS011;7255;53.596;9.960;2023-11-22T14:52:15;2.13;;;2.03;;
14342;SDS011;7255;53.596;9.960;2023-11-22T14:54:42;2.17;;;1.97;;
14342;SDS011;7255;53.596;9.960;2023-11-22T14:57:09;2.00;;;1.90;;
14342;SDS011;7255;53.596;9.960;2023-11-22T14:59:37;1.90;;;1.80;;
14342;SDS011;7255;53.596;9.960;2023-11-22T15:02:04;2.17;;;2.07;;
14342;SDS011;7255;53.596;9.960;2023-11-22T15:04:32;5.90;;;2.37;;